Time;durP1;ratioP1;P1;durP2;ratioP2;P2;SDS_P1;SDS_P2;PMS_P1;PMS_P2;Temp;Humidity;BMP_temperature;BMP_pressure;BME280_temperature;BME280_humidity;BME280_pressure;Samples;Min_cycle;Max_cycle;Signal;HPM_P1;HPM_P2
2022/08/20 00:00:48;;;;;;;4.03;2.40;;;23.70;88.20;;;;;;5036808;28;20025;-83
2022/08/20 00:03:18;;;;;;;6.63;2.40;;;23.70;88.10;;;;;;5036274;28;20021;-81
2022/08/20 00:05:50;;;;;;;6.03;2.45;;;23.70;88.30;;;;;;5036286;28;20033;-83
2022/08/20 00:08:16;;;;;;;4.25;2.55;;;23.70;88.50;;;;;;5036200;28;20025;-81
2022/08/20 00:10:44;;;;;;;4.68;2.50;;;23.80;88.40;;;;;;5048956;28;20029;-82
2022/08/20 00:13:15;;;;;;;4.85;2.33;;;23.80;88.40;;;;;;5055969;28;20036;-81
2022/08/20 00:15:41;;;;;;;7.50;2.55;;;23.80;88.20;;;;;;5055941;28;20032;-82
2022/08/20 00:18:07;;;;;;;7.30;2.20;;;23.80;88.10;;;;;;5044319;28;20362;-82
2022/08/20 00:20:40;;;;;;;6.28;2.80;;;23.70;88.10;;;;;;5035902;28;20087;-82
2022/08/20 00:23:05;;;;;;;6.85;2.55;;;23.70;88.20;;;;;;5034375;28;20080;-81
2022/08/20 00:25:32;;;;;;;8.40;2.28;;;23.70;88.20;;;;;;5035526;28;20018;-80
2022/08/20 00:27:58;;;;;;;6.03;2.47;;;23.70;88.20;;;;;;5036781;28;20029;-82
2022/08/20 00:30:26;;;;;;;4.88;2.33;;;23.60;88.40;;;;;;5035969;28;20048;-83
2022/08/20 00:32:59;;;;;;;3.80;2.42;;;23.60;88.60;;;;;;5035173;28;20362;-82
2022/08/20 00:35:28;;;;;;;7.03;2.45;;;23.60;88.50;;;;;;5035409;28;20164;-83
2022/08/20 00:37:54;;;;;;;3.95;2.38;;;23.60;88.80;;;;;;5035665;28;20026;-81
2022/08/20 00:40:24;;;;;;;5.57;2.95;;;23.50;89.00;;;;;;5034193;28;20382;-83
2022/08/20 00:42:52;;;;;;;;;;;23.50;89.20;;;;;;5034808;28;20040;-84
2022/08/20 00:45:19;;;;;;;9.65;3.72;;;23.50;89.50;;;;;;5035467;28;19912;-84
2022/08/20 00:47:46;;;;;;;6.25;3.17;;;23.40;89.30;;;;;;5042185;28;20035;-82
2022/08/20 00:50:17;;;;;;;5.18;2.78;;;23.40;89.50;;;;;;5035262;28;20033;-82
2022/08/20 00:52:47;;;;;;;5.40;3.17;;;23.40;89.30;;;;;;5034981;28;20036;-82
2022/08/20 00:55:13;;;;;;;;;;;23.40;89.40;;;;;;5035823;28;20034;-83
2022/08/20 00:57:53;;;;;;;5.43;2.70;;;23.40;89.60;;;;;;5035537;28;19911;-82
2022/08/20 01:00:26;;;;;;;5.03;2.60;;;23.40;89.30;;;;;;5035155;28;20037;-82
2022/08/20 01:02:53;;;;;;;6.13;3.20;;;23.40;89.20;;;;;;5035069;28;20518;-82
2022/08/20 01:05:22;;;;;;;8.10;3.10;;;23.40;89.50;;;;;;5035011;28;20067;-82
2022/08/20 01:07:50;;;;;;;10.80;3.50;;;23.40;89.40;;;;;;5034855;28;20025;-82
2022/08/20 01:10:37;;;;;;;3.97;2.80;;;23.50;89.50;;;;;;5035076;28;20066;-82
2022/08/20 01:13:09;;;;;;;6.00;2.75;;;23.50;89.70;;;;;;5015109;28;20025;-81
2022/08/20 01:15:40;;;;;;;3.85;2.92;;;23.50;89.50;;;;;;5015083;28;20033;-82
2022/08/20 01:18:11;;;;;;;5.75;3.35;;;23.40;89.40;;;;;;5029112;28;20057;-82
2022/08/20 01:20:40;;;;;;;7.57;3.67;;;23.40;89.40;;;;;;5033473;28;20548;-82
2022/08/20 01:23:28;;;;;;;3.75;2.72;;;23.40;89.60;;;;;;5034832;28;20366;-82
2022/08/20 01:26:04;;;;;;;8.02;3.28;;;23.40;89.50;;;;;;5034080;28;20457;-81
2022/08/20 01:28:49;;;;;;;5.25;3.22;;;23.30;89.50;;;;;;5014590;28;20026;-80
2022/08/20 01:31:23;;;;;;;3.95;2.80;;;23.30;89.60;;;;;;5014686;28;20113;-81
2022/08/20 01:33:51;;;;;;;7.78;2.97;;;23.30;89.70;;;;;;5014448;28;20029;-80
2022/08/20 01:36:21;;;;;;;4.65;3.08;;;23.30;89.60;;;;;;5013165;28;20041;-83
2022/08/20 01:38:47;;;;;;;4.82;3.25;;;23.20;89.70;;;;;;5014636;28;20439;-83
2022/08/20 01:41:29;;;;;;;9.18;3.10;;;23.30;89.80;;;;;;5035010;28;20083;-81
2022/08/20 01:43:56;;;;;;;6.28;3.05;;;23.30;89.70;;;;;;5033954;28;20108;-81
2022/08/20 01:46:31;;;;;;;4.80;3.00;;;23.20;89.70;;;;;;5034098;28;20063;-80
2022/08/20 01:48:58;;;;;;;6.00;3.05;;;23.20;89.60;;;;;;5033965;28;20045;-82
2022/08/20 01:51:29;;;;;;;7.03;3.50;;;23.20;89.70;;;;;;5034169;28;20125;-81
2022/08/20 01:53:55;;;;;;;;;;;23.20;90.00;;;;;;5034450;28;20041;-80
2022/08/20 01:56:25;;;;;;;5.57;3.25;;;23.20;89.90;;;;;;5033919;28;19958;-81
2022/08/20 01:58:53;;;;;;;6.38;3.78;;;23.20;90.00;;;;;;5033755;28;20031;-80
2022/08/20 02:01:33;;;;;;;4.20;3.05;;;23.10;90.10;;;;;;5033522;28;20033;-82
2022/08/20 02:04:02;;;;;;;5.97;3.17;;;23.10;90.00;;;;;;5033961;28;20026;-80
2022/08/20 02:06:30;;;;;;;4.90;2.90;;;23.10;90.10;;;;;;5033682;28;20458;-81
2022/08/20 02:08:59;;;;;;;9.80;3.15;;;23.10;90.00;;;;;;5033721;28;20462;-81
2022/08/20 02:11:27;;;;;;;6.03;2.88;;;23.00;90.00;;;;;;5034420;28;20033;-80
2022/08/20 02:13:54;;;;;;;5.40;3.22;;;23.10;90.00;;;;;;5053508;28;20461;-80
2022/08/20 02:16:22;;;;;;;4.65;2.50;;;23.10;90.00;;;;;;5053316;28;20029;-81
2022/08/20 02:18:53;;;;;;;7.00;3.08;;;23.10;90.00;;;;;;5053542;28;20021;-81
2022/08/20 02:21:21;;;;;;;4.55;2.83;;;23.10;89.90;;;;;;5053523;28;20031;-79
2022/08/20 02:23:47;;;;;;;4.72;3.08;;;23.00;89.80;;;;;;5053554;28;20041;-81
2022/08/20 02:26:12;;;;;;;6.15;2.83;;;23.00;89.90;;;;;;5053208;28;20043;-80
2022/08/20 02:28:38;;;;;;;3.92;2.72;;;23.00;89.90;;;;;;5052075;28;20037;-76
2022/08/20 02:31:07;;;;;;;4.57;3.08;;;23.00;89.90;;;;;;5043900;28;20086;-76
2022/08/20 02:33:33;;;;;;;5.57;2.50;;;23.00;89.90;;;;;;5033162;28;20134;-76
2022/08/20 02:35:59;;;;;;;6.03;2.95;;;23.10;90.00;;;;;;5033306;28;20133;-75
2022/08/20 02:38:25;;;;;;;4.28;2.58;;;23.10;89.90;;;;;;5033214;28;20028;-76
2022/08/20 02:40:51;;;;;;;5.90;3.40;;;23.10;89.60;;;;;;5033291;28;20528;-75
2022/08/20 02:43:18;;;;;;;7.28;2.88;;;23.10;89.40;;;;;;5048399;28;20090;-76
2022/08/20 02:45:45;;;;;;;5.60;3.30;;;23.00;89.30;;;;;;5053158;28;20036;-76
2022/08/20 02:48:19;;;;;;;5.00;3.10;;;23.00;89.30;;;;;;5053201;28;20405;-75
2022/08/20 02:50:50;;;;;;;5.00;3.10;;;23.10;89.40;;;;;;5053234;28;20078;-74
2022/08/20 02:53:16;;;;;;;6.30;2.85;;;23.10;89.20;;;;;;5053213;28;20029;-74
2022/08/20 02:55:43;;;;;;;6.22;3.13;;;23.10;89.30;;;;;;5052938;28;20044;-74
2022/08/20 02:58:09;;;;;;;6.63;3.50;;;23.10;89.10;;;;;;5053059;28;20032;-75
2022/08/20 03:00:34;;;;;;;5.40;3.38;;;23.10;89.00;;;;;;5047879;28;20029;-76
2022/08/20 03:03:01;;;;;;;5.60;3.30;;;23.10;89.00;;;;;;5033046;28;20524;-76
2022/08/20 03:05:27;;;;;;;4.68;2.65;;;23.10;89.00;;;;;;5034212;28;20029;-75
2022/08/20 03:07:55;;;;;;;4.78;2.97;;;23.20;89.00;;;;;;5036865;28;20017;-75
2022/08/20 03:10:29;;;;;;;6.22;3.00;;;23.20;89.10;;;;;;5044875;28;20037;-75
2022/08/20 03:12:54;;;;;;;4.63;2.83;;;23.20;89.20;;;;;;5037005;28;20044;-75
2022/08/20 03:15:20;;;;;;;4.22;3.03;;;23.20;89.10;;;;;;5035411;28;20025;-76
2022/08/20 03:17:47;;;;;;;7.40;2.70;;;23.20;89.20;;;;;;5037082;28;20022;-74
2022/08/20 03:20:13;;;;;;;4.28;2.22;;;23.20;89.10;;;;;;5037050;28;20037;-74
2022/08/20 03:22:39;;;;;;;4.78;2.75;;;23.10;89.10;;;;;;5036892;28;20430;-73
2022/08/20 03:25:06;;;;;;;3.30;2.33;;;23.20;89.20;;;;;;5035738;28;20108;-74
2022/08/20 03:27:31;;;;;;;7.60;2.97;;;23.10;89.10;;;;;;5036884;28;20021;-74
2022/08/20 03:29:57;;;;;;;4.57;2.33;;;23.20;89.10;;;;;;5036828;28;20556;-74
2022/08/20 03:32:23;;;;;;;5.93;2.53;;;23.20;89.00;;;;;;5035218;28;20037;-75
2022/08/20 03:34:48;;;;;;;3.97;2.45;;;23.20;88.90;;;;;;5036662;28;20029;-75
2022/08/20 03:37:14;;;;;;;5.22;2.50;;;23.20;88.90;;;;;;5035320;28;20393;-74
2022/08/20 03:39:40;;;;;;;3.72;2.53;;;23.20;88.80;;;;;;5040013;28;20025;-74
2022/08/20 03:42:06;;;;;;;3.80;2.17;;;23.20;88.60;;;;;;5056534;28;20075;-75
2022/08/20 03:44:32;;;;;;;3.45;2.22;;;23.10;88.50;;;;;;5056370;28;20067;-75
2022/08/20 03:46:58;;;;;;;3.50;2.20;;;23.10;88.60;;;;;;5056181;28;20501;-76
2022/08/20 03:49:24;;;;;;;5.05;2.20;;;23.10;88.50;;;;;;5045529;28;20072;-76
2022/08/20 03:51:50;;;;;;;4.05;2.33;;;23.10;88.60;;;;;;5036158;28;20049;-76
2022/08/20 03:54:16;;;;;;;2.90;2.00;;;23.10;88.80;;;;;;5034920;28;20033;-76
2022/08/20 03:56:42;;;;;;;6.15;1.92;;;23.10;88.70;;;;;;5036052;28;20034;-74
2022/08/20 03:59:07;;;;;;;4.63;2.35;;;23.20;88.60;;;;;;5035748;28;20036;-74
2022/08/20 04:01:33;;;;;;;2.28;1.67;;;23.10;88.40;;;;;;5035635;28;20471;-75
2022/08/20 04:04:00;;;;;;;6.45;2.28;;;23.10;88.40;;;;;;5035702;28;20033;-74
2022/08/20 04:06:28;;;;;;;5.18;2.75;;;23.00;88.30;;;;;;5036072;28;20048;-75
2022/08/20 04:08:54;;;;;;;3.65;2.15;;;23.00;88.50;;;;;;5035784;28;20369;-74
2022/08/20 04:11:20;;;;;;;6.15;2.30;;;22.90;88.60;;;;;;5055444;28;20021;-75
2022/08/20 04:13:46;;;;;;;4.95;2.08;;;23.00;88.90;;;;;;5037470;28;20037;-74
2022/08/20 04:16:12;;;;;;;4.22;2.00;;;23.00;88.90;;;;;;5035029;28;20327;-75
2022/08/20 04:18:37;;;;;;;6.85;2.30;;;23.00;88.80;;;;;;5035506;28;20034;-75
2022/08/20 04:21:04;;;;;;;3.85;2.35;;;22.90;88.80;;;;;;5035704;28;20455;-76
2022/08/20 04:23:30;;;;;;;3.67;1.95;;;22.90;88.60;;;;;;5035613;28;20048;-76
2022/08/20 04:26:02;;;;;;;4.57;2.35;;;22.90;88.70;;;;;;5034557;28;20514;-76
2022/08/20 04:28:29;;;;;;;3.72;2.10;;;22.90;88.80;;;;;;5035377;28;20029;-76
2022/08/20 04:31:01;;;;;;;5.32;2.42;;;22.90;88.70;;;;;;5034076;28;20036;-76
2022/08/20 04:33:31;;;;;;;4.00;2.38;;;22.90;88.80;;;;;;5035045;28;20045;-75
2022/08/20 04:36:01;;;;;;;5.32;2.40;;;22.90;88.80;;;;;;5035293;28;20496;-76
2022/08/20 04:38:28;;;;;;;4.53;2.15;;;22.80;88.80;;;;;;5035363;28;20040;-77
2022/08/20 04:40:57;;;;;;;5.30;2.58;;;22.80;88.90;;;;;;5042754;28;20083;-73
2022/08/20 04:43:32;;;;;;;7.43;2.78;;;22.90;89.00;;;;;;5049492;28;20083;-73
2022/08/20 04:46:00;;;;;;;3.28;2.22;;;22.90;89.10;;;;;;5045261;28;20052;-75
2022/08/20 04:48:27;;;;;;;4.65;2.40;;;22.90;89.10;;;;;;5033403;28;20103;-74
2022/08/20 04:50:56;;;;;;;6.57;2.53;;;22.90;89.10;;;;;;5033968;28;20098;-75
2022/08/20 04:53:23;;;;;;;5.15;2.38;;;22.90;89.10;;;;;;5035218;28;20030;-74
2022/08/20 04:55:51;;;;;;;4.00;2.90;;;22.90;89.00;;;;;;5033578;28;20393;-75
2022/08/20 04:58:26;;;;;;;5.80;2.65;;;23.00;89.00;;;;;;5035064;28;20033;-74
2022/08/20 05:00:55;;;;;;;3.03;2.10;;;22.90;88.90;;;;;;5033712;28;20032;-75
2022/08/20 05:03:22;;;;;;;3.67;2.33;;;22.90;88.90;;;;;;5033350;28;20029;-73
2022/08/20 05:05:52;;;;;;;4.00;1.75;;;23.00;89.00;;;;;;5034911;28;20103;-73
2022/08/20 05:08:19;;;;;;;;;;;23.00;88.90;;;;;;5035133;28;20041;-75
2022/08/20 05:10:45;;;;;;;3.67;2.35;;;23.00;88.70;;;;;;5047779;28;20315;-74
2022/08/20 05:13:11;;;;;;;4.40;2.28;;;23.00;88.90;;;;;;5043978;28;20029;-75
2022/08/20 05:15:38;;;;;;;3.55;2.22;;;23.00;88.90;;;;;;5039707;28;20087;-74
2022/08/20 05:18:06;;;;;;;4.13;2.47;;;23.00;89.00;;;;;;5053501;28;20062;-75
2022/08/20 05:20:37;;;;;;;4.32;2.30;;;23.00;89.20;;;;;;5033454;28;20488;-75
2022/08/20 05:23:04;;;;;;;5.68;2.20;;;23.00;89.00;;;;;;5034021;28;20109;-74
2022/08/20 05:25:30;;;;;;;4.28;2.08;;;23.00;88.80;;;;;;5034234;28;20043;-75
2022/08/20 05:28:04;;;;;;;7.53;1.85;;;23.10;88.90;;;;;;5033746;28;20104;-75
2022/08/20 05:30:32;;;;;;;4.72;2.00;;;23.10;89.10;;;;;;5033860;28;20057;-75
2022/08/20 05:33:03;;;;;;;5.97;2.10;;;23.10;89.10;;;;;;5034024;28;20163;-74
2022/08/20 05:35:33;;;;;;;3.78;2.42;;;23.20;88.70;;;;;;5034355;28;20044;-75
2022/08/20 05:38:00;;;;;;;5.38;2.20;;;23.20;88.40;;;;;;5033950;28;20017;-74
2022/08/20 05:40:26;;;;;;;3.05;1.77;;;23.20;88.10;;;;;;5033874;28;20155;-74
2022/08/20 05:42:55;;;;;;;4.07;2.25;;;23.20;88.10;;;;;;5034465;28;20393;-73
2022/08/20 05:45:21;;;;;;;7.18;2.10;;;23.20;88.30;;;;;;5033995;28;20427;-74
2022/08/20 05:47:47;;;;;;;3.33;1.70;;;23.30;88.60;;;;;;5033692;28;20030;-74
2022/08/20 05:50:14;;;;;;;3.88;2.10;;;23.40;88.90;;;;;;5033569;28;20052;-74
2022/08/20 05:52:40;;;;;;;2.10;1.67;;;23.40;88.70;;;;;;5033538;28;20100;-77
2022/08/20 05:55:08;;;;;;;4.13;2.03;;;23.50;88.70;;;;;;5022591;28;20061;-76
2022/08/20 05:57:35;;;;;;;2.53;1.48;;;23.60;88.70;;;;;;5021829;28;20430;-75
2022/08/20 06:00:04;;;;;;;5.18;1.70;;;23.70;88.30;;;;;;5025535;28;20029;-76
2022/08/20 06:05:15;;;;;;;3.65;1.70;;;23.90;87.50;;;;;;5033597;28;20040;-76
2022/08/20 06:07:41;;;;;;;4.43;1.45;;;24.00;86.80;;;;;;5030128;28;20389;-75
2022/08/20 06:10:09;;;;;;;4.60;1.25;;;24.10;86.30;;;;;;5036232;28;20021;-75
2022/08/20 06:12:34;;;;;;;4.60;1.90;;;24.20;85.90;;;;;;5035122;28;20071;-76
2022/08/20 06:15:00;;;;;;;2.63;1.33;;;24.20;85.70;;;;;;5031264;28;20022;-75
2022/08/20 06:17:28;;;;;;;2.92;1.30;;;24.20;85.60;;;;;;5032362;28;20079;-75
2022/08/20 06:19:55;;;;;;;1.95;1.35;;;24.30;85.60;;;;;;5035027;28;20069;-75
2022/08/20 06:22:20;;;;;;;6.57;1.52;;;24.40;85.50;;;;;;5031312;28;20029;-77
2022/08/20 06:24:46;;;;;;;4.18;1.35;;;24.40;85.30;;;;;;5026662;28;20027;-78
2022/08/20 06:27:14;;;;;;;4.63;1.20;;;24.50;85.10;;;;;;5032517;28;20036;-77
2022/08/20 06:29:41;;;;;;;2.13;1.38;;;24.50;84.60;;;;;;5014213;28;20451;-78
2022/08/20 06:32:06;;;;;;;4.90;1.88;;;24.60;84.60;;;;;;5014395;28;20053;-78
2022/08/20 06:34:32;;;;;;;4.65;1.42;;;24.50;84.50;;;;;;5025271;28;20034;-77
2022/08/20 06:36:58;;;;;;;5.45;1.50;;;24.60;83.80;;;;;;5043684;28;20112;-77
2022/08/20 06:39:29;;;;;;;5.90;1.77;;;24.60;83.80;;;;;;5029727;28;20026;-76
2022/08/20 06:41:57;;;;;;;2.20;1.20;;;24.70;83.70;;;;;;5035482;28;20021;-79
2022/08/20 06:44:23;;;;;;;3.65;1.40;;;24.70;83.40;;;;;;5042935;28;20029;-79
2022/08/20 06:46:55;;;;;;;4.03;1.60;;;24.80;83.10;;;;;;5020587;28;20022;-78
2022/08/20 06:49:20;;;;;;;4.30;1.40;;;24.80;83.30;;;;;;5029326;28;20076;-79
2022/08/20 06:51:46;;;;;;;1.30;1.02;;;24.80;82.80;;;;;;5030550;28;20478;-79
2022/08/20 06:54:12;;;;;;;3.72;1.30;;;24.80;82.30;;;;;;5032574;28;20100;-79
2022/08/20 06:56:37;;;;;;;4.93;1.38;;;24.80;81.20;;;;;;5032882;28;20124;-79
2022/08/20 06:59:03;;;;;;;4.35;1.27;;;24.90;81.10;;;;;;5032941;28;20029;-80
2022/08/20 07:01:28;;;;;;;3.72;1.17;;;24.80;81.40;;;;;;5032174;28;20037;-79
2022/08/20 07:03:58;;;;;;;2.58;1.05;;;24.80;81.70;;;;;;5032373;28;20032;-79
2022/08/20 07:06:24;;;;;;;11.30;1.20;;;24.90;82.00;;;;;;5030571;28;20540;-79
2022/08/20 07:08:50;;;;;;;2.78;1.20;;;24.90;82.10;;;;;;5041116;28;20458;-79
2022/08/20 07:11:16;;;;;;;5.65;1.38;;;24.90;81.90;;;;;;5038101;28;20030;-79
2022/08/20 07:13:41;;;;;;;4.75;1.02;;;25.00;81.20;;;;;;5039073;28;20021;-79
2022/08/20 07:16:07;;;;;;;3.03;0.90;;;25.00;80.60;;;;;;5052323;28;20039;-79
2022/08/20 07:18:33;;;;;;;3.95;0.95;;;25.10;80.20;;;;;;5040586;28;20105;-79
2022/08/20 07:20:58;;;;;;;1.65;1.00;;;25.10;79.70;;;;;;5052354;28;20358;-75
2022/08/20 07:23:25;;;;;;;2.83;1.05;;;25.20;79.80;;;;;;5052381;28;20076;-75
2022/08/20 07:25:51;;;;;;;3.42;1.25;;;25.30;80.00;;;;;;5050878;28;20480;-75
2022/08/20 07:28:23;;;;;;;3.30;0.80;;;25.30;79.80;;;;;;5032542;28;20026;-75
2022/08/20 07:33:34;;;;;;;3.78;1.13;;;25.60;78.10;;;;;;5032653;28;20429;-75
2022/08/20 07:36:04;;;;;;;3.83;0.85;;;25.70;77.40;;;;;;5032129;28;20057;-75
2022/08/20 07:38:31;;;;;;;1.95;1.00;;;25.80;77.40;;;;;;5032403;28;20021;-75
2022/08/20 07:41:03;;;;;;;1.52;1.00;;;25.90;76.90;;;;;;5042477;28;20033;-75
2022/08/20 07:43:29;;;;;;;3.33;0.90;;;26.00;76.70;;;;;;5044459;28;20044;-79
2022/08/20 07:45:59;;;;;;;2.40;0.82;;;26.10;76.50;;;;;;5031669;28;20122;-78
2022/08/20 07:48:27;;;;;;;5.32;1.40;;;26.10;75.90;;;;;;5030381;28;20048;-79
2022/08/20 07:50:57;;;;;;;1.40;0.80;;;26.20;75.80;;;;;;5036824;28;20162;-78
2022/08/20 07:53:23;;;;;;;;;;;26.20;75.10;;;;;;5038724;28;20123;-79
2022/08/20 07:55:49;;;;;;;0.68;0.52;;;26.30;72.80;;;;;;5035868;28;20369;-78
2022/08/20 07:58:18;;;;;;;2.67;0.85;;;26.30;74.20;;;;;;5030705;28;20026;-79
2022/08/20 08:00:45;;;;;;;1.27;0.93;;;26.30;74.20;;;;;;5028596;28;20059;-79
2022/08/20 08:03:11;;;;;;;2.58;0.90;;;26.30;73.30;;;;;;5032988;28;20033;-79
2022/08/20 08:05:40;;;;;;;3.70;1.17;;;26.40;72.90;;;;;;5033930;28;20057;-79
2022/08/20 08:08:11;;;;;;;1.77;0.80;;;26.40;71.10;;;;;;5034991;28;20042;-79
2022/08/20 08:10:39;;;;;;;2.67;0.80;;;26.40;71.80;;;;;;5033773;28;20497;-79
2022/08/20 08:13:10;;;;;;;4.10;0.93;;;26.40;72.40;;;;;;5034358;28;20038;-79
2022/08/20 08:15:40;;;;;;;1.52;0.68;;;26.40;72.50;;;;;;5035509;28;20029;-79
2022/08/20 08:18:12;;;;;;;1.10;0.80;;;26.40;72.60;;;;;;5016150;28;20026;-79
2022/08/20 08:20:41;;;;;;;2.72;0.90;;;26.50;72.50;;;;;;5025983;28;20292;-79
2022/08/20 08:23:12;;;;;;;2.25;1.30;;;26.50;72.50;;;;;;5035122;28;20040;-79
2022/08/20 08:25:41;;;;;;;3.15;0.85;;;26.50;72.70;;;;;;5035205;28;20035;-78
2022/08/20 08:28:07;;;;;;;2.47;0.90;;;26.50;73.00;;;;;;5035009;28;20029;-79
2022/08/20 08:30:33;;;;;;;3.03;1.10;;;26.60;72.90;;;;;;5035110;28;20477;-79
2022/08/20 08:35:45;;;;;;;1.92;0.82;;;26.60;73.20;;;;;;5034872;28;20103;-78
2022/08/20 08:38:12;;;;;;;4.68;0.80;;;26.50;72.90;;;;;;5034602;28;20034;-78
2022/08/20 08:40:38;;;;;;;2.58;0.85;;;26.60;73.40;;;;;;5034319;28;20025;-79
2022/08/20 08:43:05;;;;;;;1.42;1.13;;;26.60;73.70;;;;;;5034957;28;20029;-78
2022/08/20 08:45:44;;;;;;;3.60;1.00;;;26.60;73.90;;;;;;5034823;28;20022;-79
2022/08/20 08:48:16;;;;;;;5.47;1.05;;;26.70;74.00;;;;;;5042554;28;20025;-78
2022/08/20 08:50:48;;;;;;;2.88;0.98;;;26.80;74.10;;;;;;5034994;28;20045;-79
2022/08/20 08:53:36;;;;;;;3.55;1.00;;;26.90;73.80;;;;;;5032978;28;20474;-74
2022/08/20 08:56:05;;;;;;;2.22;0.90;;;26.90;73.20;;;;;;5032872;28;20063;-75
2022/08/20 08:58:34;;;;;;;2.72;0.98;;;26.90;73.60;;;;;;5033263;28;20025;-75
2022/08/20 09:01:11;;;;;;;3.33;0.90;;;26.90;73.30;;;;;;5033344;28;20117;-78
2022/08/20 09:03:38;;;;;;;2.75;0.90;;;26.90;73.60;;;;;;5033322;28;20026;-74
2022/08/20 09:06:06;;;;;;;1.05;0.85;;;26.90;74.20;;;;;;5033977;28;20060;-75
2022/08/20 09:08:54;;;;;;;1.38;0.80;;;26.90;74.00;;;;;;5033711;28;20044;-75
2022/08/20 09:11:22;;;;;;;3.35;1.00;;;27.00;74.10;;;;;;5033580;28;20032;-80
2022/08/20 09:13:48;;;;;;;2.40;1.08;;;27.00;74.00;;;;;;5031313;28;20516;-79
2022/08/20 09:16:14;;;;;;;1.33;0.80;;;27.00;73.60;;;;;;5033107;28;20389;-79
2022/08/20 09:18:40;;;;;;;1.55;0.80;;;27.10;73.50;;;;;;5035082;28;20034;-75
2022/08/20 09:21:06;;;;;;;0.77;0.70;;;27.10;73.20;;;;;;5033386;28;20045;-75
2022/08/20 09:23:32;;;;;;;2.85;0.80;;;27.10;72.80;;;;;;5034280;28;20454;-75
2022/08/20 09:25:58;;;;;;;2.72;1.10;;;27.10;72.30;;;;;;5034390;28;20061;-75
2022/08/20 09:28:24;;;;;;;1.48;1.00;;;27.10;72.30;;;;;;5034099;28;20127;-75
2022/08/20 09:30:49;;;;;;;4.38;1.17;;;27.20;72.40;;;;;;5034115;28;20021;-74
2022/08/20 09:33:15;;;;;;;1.58;0.80;;;27.20;72.30;;;;;;5034149;28;20119;-74
2022/08/20 09:35:43;;;;;;;1.85;0.80;;;27.20;71.80;;;;;;5034361;28;20065;-74
2022/08/20 09:38:09;;;;;;;3.83;0.90;;;27.20;71.10;;;;;;5033879;28;20028;-75
2022/08/20 09:40:35;;;;;;;1.77;1.00;;;27.20;71.80;;;;;;5032527;28;20366;-74
2022/08/20 09:43:02;;;;;;;3.30;1.27;;;27.20;72.10;;;;;;5034749;28;20083;-75
2022/08/20 09:45:28;;;;;;;4.57;0.80;;;27.30;72.60;;;;;;5033731;28;20060;-75
2022/08/20 09:47:53;;;;;;;3.13;1.00;;;27.50;72.60;;;;;;5033849;28;20057;-75
2022/08/20 09:50:19;;;;;;;3.17;1.35;;;27.60;71.70;;;;;;5053520;28;20123;-74
2022/08/20 09:52:47;;;;;;;2.75;0.98;;;27.70;71.00;;;;;;5052964;28;20044;-74
2022/08/20 09:55:32;;;;;;;1.77;0.88;;;27.80;71.30;;;;;;5033046;28;20026;-74
2022/08/20 09:57:59;;;;;;;1.70;0.90;;;28.00;71.20;;;;;;5031563;28;20084;-75
2022/08/20 10:00:25;;;;;;;2.03;1.08;;;28.20;70.50;;;;;;5030901;28;20029;-74
2022/08/20 10:02:53;;;;;;;1.63;0.88;;;28.50;69.80;;;;;;5029572;28;20067;-74
2022/08/20 10:05:19;;;;;;;1.40;0.60;;;28.70;69.10;;;;;;5032641;28;20030;-74
2022/08/20 10:07:44;;;;;;;1.55;1.00;;;28.90;69.10;;;;;;5032844;28;20112;-73
2022/08/20 10:10:12;;;;;;;0.80;0.68;;;29.10;68.80;;;;;;5033000;28;20155;-74
2022/08/20 10:12:40;;;;;;;2.05;1.10;;;29.30;68.10;;;;;;5032649;28;20030;-74
2022/08/20 10:15:07;;;;;;;3.78;1.58;;;29.40;67.50;;;;;;5034312;28;20053;-74
2022/08/20 10:17:35;;;;;;;3.08;1.30;;;29.50;64.30;;;;;;5033587;28;20101;-74
2022/08/20 10:20:01;;;;;;;4.63;1.63;;;29.60;65.30;;;;;;5033591;28;20022;-74
2022/08/20 10:22:27;;;;;;;3.25;1.50;;;29.60;64.80;;;;;;5033673;28;20021;-74
2022/08/20 10:24:52;;;;;;;2.75;1.20;;;29.60;64.30;;;;;;5033400;28;20033;-74
2022/08/20 10:27:19;;;;;;;6.50;2.08;;;29.60;64.00;;;;;;5032196;28;20030;-74
2022/08/20 10:29:45;;;;;;;6.70;0.93;;;29.70;64.70;;;;;;5033646;28;20112;-79
2022/08/20 10:32:14;;;;;;;4.65;1.05;;;29.80;63.60;;;;;;5033452;28;20061;-79
2022/08/20 10:34:41;;;;;;;16.20;14.45;;;29.80;63.90;;;;;;5034420;28;20060;-78
2022/08/20 10:37:08;;;;;;;42.75;38.33;;;29.90;62.60;;;;;;5032854;28;20067;-79
2022/08/20 10:39:34;;;;;;;17.70;15.75;;;30.00;63.30;;;;;;5031431;28;20071;-78
2022/08/20 10:42:00;;;;;;;8.80;4.00;;;30.20;63.70;;;;;;5032917;28;20028;-79
2022/08/20 10:44:26;;;;;;;2.47;1.30;;;30.40;63.80;;;;;;5033069;28;20026;-73
2022/08/20 10:46:52;;;;;;;2.85;1.10;;;30.60;61.90;;;;;;5033945;28;20091;-73
2022/08/20 10:49:17;;;;;;;2.03;0.95;;;30.70;61.60;;;;;;5032994;28;20049;-73
2022/08/20 10:51:43;;;;;;;2.00;1.00;;;30.70;61.10;;;;;;5032887;28;20098;-73
2022/08/20 10:54:09;;;;;;;1.92;1.00;;;30.80;61.00;;;;;;5032524;28;20040;-74
2022/08/20 10:56:35;;;;;;;1.65;0.80;;;30.90;60.90;;;;;;5032648;28;20037;-73
2022/08/20 10:59:00;;;;;;;2.22;1.08;;;31.00;60.80;;;;;;5033060;28;20489;-73
2022/08/20 11:01:26;;;;;;;3.35;1.23;;;31.00;61.60;;;;;;5032907;28;20020;-73
2022/08/20 11:03:52;;;;;;;1.25;0.90;;;31.30;61.70;;;;;;5033061;28;20053;-73
2022/08/20 11:06:17;;;;;;;1.75;0.95;;;31.40;60.40;;;;;;5032029;28;20460;-74
2022/08/20 11:08:44;;;;;;;2.28;0.80;;;31.40;56.60;;;;;;5033167;28;20034;-74
2022/08/20 11:11:10;;;;;;;2.15;0.93;;;31.40;55.70;;;;;;5033155;28;20088;-74
2022/08/20 11:13:36;;;;;;;4.20;0.77;;;31.50;56.30;;;;;;5033052;28;20037;-73
2022/08/20 11:16:03;;;;;;;1.90;1.00;;;31.60;55.90;;;;;;5033275;28;20492;-74
2022/08/20 11:18:30;;;;;;;3.67;0.70;;;31.40;52.00;;;;;;5033232;28;20040;-73
2022/08/20 11:20:56;;;;;;;1.17;0.40;;;31.50;51.40;;;;;;5031929;28;20076;-74
2022/08/20 11:23:22;;;;;;;2.03;0.57;;;31.60;53.50;;;;;;5031666;28;20108;-74
2022/08/20 11:25:48;;;;;;;1.33;0.70;;;31.90;53.40;;;;;;5032939;28;20101;-74
2022/08/20 11:28:14;;;;;;;1.35;0.60;;;32.00;53.00;;;;;;5036992;28;20033;-74
2022/08/20 11:30:40;;;;;;;4.63;0.88;;;32.20;54.30;;;;;;5036959;28;20037;-74
2022/08/20 11:33:06;;;;;;;3.33;0.93;;;32.40;52.10;;;;;;5036742;28;20358;-74
2022/08/20 11:35:34;;;;;;;3.55;0.85;;;32.60;54.00;;;;;;5036722;28;20040;-74
2022/08/20 11:38:01;;;;;;;2.45;0.80;;;32.90;54.90;;;;;;5036643;28;20096;-74
2022/08/20 11:40:28;;;;;;;1.48;0.75;;;33.10;51.40;;;;;;5036917;28;20026;-74
2022/08/20 11:42:54;;;;;;;3.22;0.73;;;33.20;52.90;;;;;;5035373;28;20036;-74
2022/08/20 11:45:21;;;;;;;3.30;0.93;;;33.30;52.80;;;;;;5035712;28;20026;-74
2022/08/20 11:47:46;;;;;;;1.63;0.77;;;33.30;52.50;;;;;;5036441;28;20040;-74
2022/08/20 11:50:15;;;;;;;1.25;0.90;;;33.30;53.10;;;;;;5036519;28;20041;-74
2022/08/20 11:52:41;;;;;;;1.77;0.65;;;33.50;51.50;;;;;;5036518;28;20080;-74
2022/08/20 11:55:09;;;;;;;4.30;0.90;;;33.40;51.80;;;;;;5036494;28;20034;-74
2022/08/20 11:57:37;;;;;;;1.00;0.70;;;33.40;51.00;;;;;;5036458;28;20481;-74
2022/08/20 12:00:09;;;;;;;2.70;1.25;;;33.50;51.00;;;;;;5036309;28;20458;-74
2022/08/20 12:02:35;;;;;;;1.42;0.80;;;33.70;50.70;;;;;;5035388;28;20021;-74
2022/08/20 12:05:01;;;;;;;1.77;0.68;;;34.00;50.70;;;;;;5036433;28;20504;-74
2022/08/20 12:07:27;;;;;;;1.25;0.60;;;34.30;50.30;;;;;;5036360;28;20022;-74
2022/08/20 12:09:53;;;;;;;2.28;0.70;;;34.50;48.90;;;;;;5036251;28;20108;-74
2022/08/20 12:12:22;;;;;;;1.30;0.70;;;34.60;47.20;;;;;;5036178;28;20099;-74
2022/08/20 12:14:52;;;;;;;2.45;0.80;;;34.50;46.00;;;;;;5036266;28;20470;-74
2022/08/20 12:17:28;;;;;;;;;;;34.30;45.40;;;;;;5037193;28;20489;-74
2022/08/20 12:19:56;;;;;;;1.60;0.50;;;34.40;45.40;;;;;;5034686;28;19955;-74
2022/08/20 12:22:23;;;;;;;3.90;0.70;;;34.60;47.20;;;;;;5036008;28;20466;-74
2022/08/20 12:24:49;;;;;;;1.00;0.60;;;34.60;43.70;;;;;;5037124;28;20500;-74
2022/08/20 12:27:18;;;;;;;1.20;0.68;;;34.50;45.20;;;;;;5016226;28;20037;-74
2022/08/20 12:29:46;;;;;;;1.73;0.60;;;34.60;45.30;;;;;;5016029;28;20034;-74
2022/08/20 12:32:12;;;;;;;1.30;0.52;;;34.80;46.30;;;;;;5015984;28;20348;-74
2022/08/20 12:34:40;;;;;;;1.80;0.60;;;35.00;46.10;;;;;;5030957;28;20034;-74
2022/08/20 12:37:14;;;;;;;2.35;0.80;;;35.10;45.90;;;;;;5015713;28;20030;-74
2022/08/20 12:39:42;;;;;;;2.65;0.95;;;35.50;45.10;;;;;;5015250;28;20474;-74
2022/08/20 12:42:09;;;;;;;2.42;0.80;;;35.60;42.60;;;;;;5015896;28;20049;-74
2022/08/20 12:44:36;;;;;;;0.90;0.60;;;35.40;42.10;;;;;;5022337;28;20053;-74
2022/08/20 12:47:20;;;;;;;1.75;0.70;;;35.50;44.20;;;;;;5035750;28;20033;-74
2022/08/20 12:49:49;;;;;;;1.13;0.65;;;35.80;45.20;;;;;;5035410;28;20056;-74
2022/08/20 12:52:17;;;;;;;1.38;0.47;;;36.10;45.10;;;;;;5035509;28;20079;-74
2022/08/20 12:54:42;;;;;;;2.55;0.82;;;36.20;42.00;;;;;;5034134;28;20407;-74
2022/08/20 12:57:42;;;;;;;6.65;0.57;;;36.40;43.90;;;;;;5035173;28;20037;-74
2022/08/20 13:00:21;;;;;;;3.15;1.00;;;36.60;42.30;;;;;;5035114;28;20021;-74